Jonni Ritscher — A8JT7 — position and weather

sailwx.info

Track history (hours):
 
Tides and Currents Weather Stations Pressure Air Temp Water Temp Dewpoint Dewpoint Depression Visibility Wind Speed Wind Dir Waves Ship Positions

Jonni Ritscher

Last reported at 2017-Jan-17 13:19 UTC. Time now 2017-Jan-18 12:09 UTC.
Position N 55°37' E 015°21'.

Length 178 m; draft 9.1 m.

Type: Cargo ship. MMSI: 636091136.

Date/timePositionNaut miles runAvg speedWind from/ knotsBaromVisibWave heightAir tempDewpointWater temp
2017-Jan-17 13:19N 55°37' E 015°21'912.2
2017-Jan-17 12:33N 55°33' E 015°07'1311.9
2017-Jan-17 11:29N 55°26' E 014°48'1112.2
2017-Jan-17 10:33N 55°19' E 014°33'1212.1
2017-Jan-17 09:33N 55°09' E 014°19'1312.2
2017-Jan-17 08:30N 55°00' E 014°03'4213.1
2017-Jan-17 05:17N 54°47' E 012°53'811.8
2017-Jan-17 04:33N 54°43' E 012°40'1211.9
2017-Jan-17 03:33N 54°37' E 012°23'2310.1
2017-Jan-17 01:16N 54°25' E 011°49'811.4
2017-Jan-17 00:33N 54°27' E 011°36'1111.0
2017-Jan-16 23:33N 54°32' E 011°19'1111.1
2017-Jan-16 22:33N 54°38' E 011°02'1010.3
2017-Jan-16 21:33N 54°46' E 010°52'1010.3
2017-Jan-16 20:33N 54°56' E 010°55'1010.4
2017-Jan-16 19:33N 55°06' E 011°02'11814.0
2017-Jan-16 11:10N 57°01' E 011°41'1118.6
2017-Jan-16 10:33N 57°12' E 011°34'1918.8
2017-Jan-16 09:33N 57°30' E 011°21'1918.7
2017-Jan-16 08:33N 57°42' E 010°55'1717.1
2017-Jan-16 07:33N 57°48' E 010°24'26917.6
2017-Jan-15 16:15N 54°19' E 005°20'1217.1
2017-Jan-15 15:32N 54°08' E 005°10'1717.4
2017-Jan-15 14:34N 53°52' E 004°60'5716.4
2017-Jan-15 11:05N 53°00' E 004°21'916.8
2017-Jan-15 10:33N 52°52' E 004°15'2115.1
2017-Jan-15 09:09N 52°36' E 003°52'7716.7
2017-Jan-15 04:31N 51°39' E 002°26'1717.8
2017-Jan-15 03:33N 51°26' E 002°09'1212.0
2017-Jan-15 02:33N 51°22' E 002°27'1413.8
2017-Jan-15 01:33N 51°25' E 002°49'1515.0
2017-Jan-15 00:33N 51°21' E 003°12'1 0.7
2017-Jan-14 23:33N 51°21' E 003°11'0 0.0
2017-Jan-14 22:33N 51°21' E 003°11'0 0.0
2017-Jan-14 21:32N 51°21' E 003°11'0 0.0
2017-Jan-14 20:32N 51°21' E 003°11'0 0.0
2017-Jan-14 19:31N 51°21' E 003°11'0 0.0
2017-Jan-14 18:31N 51°21' E 003°11'0 0.0
2017-Jan-14 17:31N 51°21' E 003°11'0 0.0
2017-Jan-14 16:33N 51°21' E 003°11'0 0.0
2017-Jan-14 15:33N 51°21' E 003°11'0 0.0
2017-Jan-14 14:32N 51°21' E 003°11'0 0.0
2017-Jan-14 13:32N 51°21' E 003°11'3 3.3
2017-Jan-14 12:33N 51°24' E 003°09'1616.3
2017-Jan-14 11:33N 51°23' E 002°43'1414.1
2017-Jan-14 10:33N 51°20' E 002°20'1616.2
2017-Jan-14 09:33N 51°29' E 001°59'10 9.8
2017-Jan-14 08:33N 51°38' E 002°02'1 1.4
2017-Jan-14 07:33N 51°39' E 002°04'9 9.4
2017-Jan-14 06:33N 51°31' E 001°56'2 1.6
2017-Jan-14 05:33N 51°32' E 001°57'6 5.8
2017-Jan-14 04:33N 51°37' E 002°03'1 1.3
2017-Jan-14 03:33N 51°38' E 002°04'5 1.2
2017-Jan-13 23:33N 51°35' E 001°59'3 2.9
2017-Jan-13 22:33N 51°32' E 001°57'2 2.0
2017-Jan-13 21:33N 51°30' E 001°56'5 4.8
2017-Jan-13 20:33N 51°34' E 002°01'8 8.1
2017-Jan-13 19:32N 51°41' E 002°08'1 1.3
2017-Jan-13 18:33N 51°40' E 002°06'3 2.7
2017-Jan-13 17:33N 51°38' E 002°04'4 3.9
2017-Jan-13 16:33N 51°34' E 002°00'4 3.9
2017-Jan-13 15:33N 51°31' E 001°58'3 3.1
2017-Jan-13 14:34N 51°33' E 002°02'3 3.3
2017-Jan-13 13:33N 51°34' E 002°07'3 3.4
2017-Jan-13 12:33N 51°36' E 002°11'4 3.5
2017-Jan-13 11:33N 51°39' E 002°15'241 6.5
2017-Jan-11 22:18N 53°59' E 007°41'3 3.8
2017-Jan-11 21:32N 53°56' E 007°43'4 3.9
2017-Jan-11 20:33N 53°53' E 007°45'5 4.7
2017-Jan-11 19:33N 53°50' E 007°52'9 9.5
2017-Jan-11 18:33N 53°44' E 008°04'9 9.1
2017-Jan-11 17:33N 53°35' E 008°09'0 0.0
2017-Jan-11 16:32N 53°35' E 008°09'0 0.0
2017-Jan-11 15:32N 53°35' E 008°09'0 0.0
2017-Jan-11 14:32N 53°35' E 008°09'0 0.0
2017-Jan-11 13:29N 53°35' E 008°09'0 0.0
2017-Jan-11 12:31N 53°35' E 008°09'0 0.0
2017-Jan-11 11:28N 53°35' E 008°09'2 2.5
2017-Jan-11 10:33N 53°37' E 008°09'1313.5
2017-Jan-11 09:34N 53°49' E 007°57'5112.9
2017-Jan-11 05:33N 54°38' E 007°29'1312.5
2017-Jan-11 04:33N 54°50' E 007°28'1312.8
2017-Jan-11 03:33N 55°03' E 007°26'1312.9
2017-Jan-11 02:33N 55°16' E 007°25'1212.6
2017-Jan-11 01:33N 55°28' E 007°23'1212.4
2017-Jan-11 00:33N 55°41' E 007°20'1313.0
2017-Jan-10 23:33N 55°53' E 007°26'14914.5
2017-Jan-10 13:16N 57°49' E 010°17'1419.3
2017-Jan-10 12:33N 57°49' E 010°43'1817.7
2017-Jan-10 11:34N 57°42' E 011°13'1515.4
2017-Jan-10 10:33N 57°38' E 011°41'6 6.1
2017-Jan-10 09:33N 57°41' E 011°51'0 0.0
2017-Jan-10 08:32N 57°41' E 011°51'0 0.0
2017-Jan-10 07:32N 57°41' E 011°51'0 0.0
2017-Jan-10 06:31N 57°41' E 011°51'0 0.0
2017-Jan-10 05:31N 57°41' E 011°51'0 0.0
2017-Jan-10 04:33N 57°41' E 011°51'0 0.0
2017-Jan-10 03:33N 57°41' E 011°51'0 0.0
2017-Jan-10 02:33N 57°41' E 011°51'0 0.0
2017-Jan-10 01:32N 57°41' E 011°51'0 0.0
2017-Jan-10 00:32N 57°41' E 011°51'0 0.0
2017-Jan-09 23:31N 57°41' E 011°51'0 0.0
2017-Jan-09 22:31N 57°41' E 011°51'0 0.0
2017-Jan-09 21:33N 57°41' E 011°51'0 0.0
2017-Jan-09 20:33N 57°41' E 011°51'0 0.0
2017-Jan-09 19:33N 57°41' E 011°51'0 0.0
2017-Jan-09 18:32N 57°41' E 011°51'0 0.0
2017-Jan-09 17:32N 57°41' E 011°51'0 0.0
2017-Jan-09 16:31N 57°41' E 011°51'0 0.0
2017-Jan-09 15:31N 57°41' E 011°51'0 0.0
2017-Jan-09 14:33N 57°41' E 011°51'0 0.0
2017-Jan-09 13:33N 57°41' E 011°51'0 0.0
2017-Jan-09 12:33N 57°41' E 011°51'0 0.0
2017-Jan-09 11:32N 57°41' E 011°51'0 0.0
2017-Jan-09 10:32N 57°41' E 011°51'0 0.0
2017-Jan-09 09:31N 57°41' E 011°51'0 0.0
2017-Jan-09 08:31N 57°41' E 011°51'0 0.0
2017-Jan-09 07:33N 57°41' E 011°51'0 0.0
2017-Jan-09 06:33N 57°41' E 011°51'0 0.0
2017-Jan-09 05:33N 57°41' E 011°51'2 2.3
2017-Jan-09 04:33N 57°40' E 011°47'10 9.5
2017-Jan-09 03:33N 57°33' E 011°37'1110.7
2017-Jan-09 02:33N 57°22' E 011°36'1010.5
2017-Jan-09 01:33N 57°11' E 011°38'1111.0
2017-Jan-09 00:32N 57°01' E 011°44'64 9.1
2017-Jan-08 17:32N 56°03' E 010°53'1010.8
2017-Jan-08 16:34N 56°04' E 010°34'1111.1
2017-Jan-08 15:33N 56°09' E 010°16'1 1.1
2017-Jan-08 14:34N 56°09' E 010°14'0 0.0
2017-Jan-08 13:33N 56°09' E 010°14'0 0.0
2017-Jan-08 12:33N 56°09' E 010°14'0 0.0
2017-Jan-08 11:32N 56°09' E 010°14'0 0.0
2017-Jan-08 10:32N 56°09' E 010°14'0 0.0
2017-Jan-08 09:31N 56°09' E 010°14'0 0.0
2017-Jan-08 08:31N 56°09' E 010°14'0 0.0
2017-Jan-08 07:33N 56°09' E 010°14'0 0.0
2017-Jan-08 06:33N 56°09' E 010°14'0 0.0
2017-Jan-08 05:33N 56°09' E 010°14'0 0.0
2017-Jan-08 04:33N 56°09' E 010°14'6 6.4
2017-Jan-08 03:33N 56°07' E 010°25'1313.1
2017-Jan-08 02:33N 56°03' E 010°47'6311.8
2017-Jan-07 21:10N 56°59' E 011°42'813.6
2017-Jan-07 20:33N 57°07' E 011°37'1413.7
2017-Jan-07 19:33N 57°20' E 011°29'1313.3
2017-Jan-07 18:34N 57°31' E 011°17'1413.8
2017-Jan-07 17:33N 57°41' E 010°58'1413.7
2017-Jan-07 16:33N 57°48' E 010°37'2014.0
2017-Jan-07 15:10N 57°44' E 010°01'1214.2
2017-Jan-07 14:17N 57°37' E 009°42'  
Track history (hours):
 
Tides and Currents Weather Stations Pressure Air Temp Water Temp Dewpoint Dewpoint Depression Visibility Wind Speed Wind Dir Waves Ship Positions

Jonni Ritscher

Last reported at 2017-Jan-17 13:19 UTC. Time now 2017-Jan-18 12:09 UTC.
Position N 55°37' E 015°21'.

Length 178 m; draft 9.1 m.

Type: Cargo ship. MMSI: 636091136.

Date/timePositionNaut miles runAvg speedWind from/ knotsBaromVisibWave heightAir tempDewpointWater temp
2017-Jan-17 13:19N 55°37' E 015°21'912.2
2017-Jan-17 12:33N 55°33' E 015°07'1311.9
2017-Jan-17 11:29N 55°26' E 014°48'1112.2
2017-Jan-17 10:33N 55°19' E 014°33'1212.1
2017-Jan-17 09:33N 55°09' E 014°19'1312.2
2017-Jan-17 08:30N 55°00' E 014°03'4213.1
2017-Jan-17 05:17N 54°47' E 012°53'811.8
2017-Jan-17 04:33N 54°43' E 012°40'1211.9
2017-Jan-17 03:33N 54°37' E 012°23'2310.1
2017-Jan-17 01:16N 54°25' E 011°49'811.4
2017-Jan-17 00:33N 54°27' E 011°36'1111.0
2017-Jan-16 23:33N 54°32' E 011°19'1111.1
2017-Jan-16 22:33N 54°38' E 011°02'1010.3
2017-Jan-16 21:33N 54°46' E 010°52'1010.3
2017-Jan-16 20:33N 54°56' E 010°55'1010.4
2017-Jan-16 19:33N 55°06' E 011°02'11814.0
2017-Jan-16 11:10N 57°01' E 011°41'1118.6
2017-Jan-16 10:33N 57°12' E 011°34'1918.8
2017-Jan-16 09:33N 57°30' E 011°21'1918.7
2017-Jan-16 08:33N 57°42' E 010°55'1717.1
2017-Jan-16 07:33N 57°48' E 010°24'26917.6
2017-Jan-15 16:15N 54°19' E 005°20'1217.1
2017-Jan-15 15:32N 54°08' E 005°10'1717.4
2017-Jan-15 14:34N 53°52' E 004°60'5716.4
2017-Jan-15 11:05N 53°00' E 004°21'916.8
2017-Jan-15 10:33N 52°52' E 004°15'2115.1
2017-Jan-15 09:09N 52°36' E 003°52'7716.7
2017-Jan-15 04:31N 51°39' E 002°26'1717.8
2017-Jan-15 03:33N 51°26' E 002°09'1212.0
2017-Jan-15 02:33N 51°22' E 002°27'1413.8
2017-Jan-15 01:33N 51°25' E 002°49'1515.0
2017-Jan-15 00:33N 51°21' E 003°12'1 0.7
2017-Jan-14 23:33N 51°21' E 003°11'0 0.0
2017-Jan-14 22:33N 51°21' E 003°11'0 0.0
2017-Jan-14 21:32N 51°21' E 003°11'0 0.0
2017-Jan-14 20:32N 51°21' E 003°11'0 0.0
2017-Jan-14 19:31N 51°21' E 003°11'0 0.0
2017-Jan-14 18:31N 51°21' E 003°11'0 0.0
2017-Jan-14 17:31N 51°21' E 003°11'0 0.0
2017-Jan-14 16:33N 51°21' E 003°11'0 0.0
2017-Jan-14 15:33N 51°21' E 003°11'0 0.0
2017-Jan-14 14:32N 51°21' E 003°11'0 0.0
2017-Jan-14 13:32N 51°21' E 003°11'3 3.3
2017-Jan-14 12:33N 51°24' E 003°09'1616.3
2017-Jan-14 11:33N 51°23' E 002°43'1414.1
2017-Jan-14 10:33N 51°20' E 002°20'1616.2
2017-Jan-14 09:33N 51°29' E 001°59'10 9.8
2017-Jan-14 08:33N 51°38' E 002°02'1 1.4
2017-Jan-14 07:33N 51°39' E 002°04'9 9.4
2017-Jan-14 06:33N 51°31' E 001°56'2 1.6
2017-Jan-14 05:33N 51°32' E 001°57'6 5.8
2017-Jan-14 04:33N 51°37' E 002°03'1 1.3
2017-Jan-14 03:33N 51°38' E 002°04'5 1.2
2017-Jan-13 23:33N 51°35' E 001°59'3 2.9
2017-Jan-13 22:33N 51°32' E 001°57'2 2.0
2017-Jan-13 21:33N 51°30' E 001°56'5 4.8
2017-Jan-13 20:33N 51°34' E 002°01'8 8.1
2017-Jan-13 19:32N 51°41' E 002°08'1 1.3
2017-Jan-13 18:33N 51°40' E 002°06'3 2.7
2017-Jan-13 17:33N 51°38' E 002°04'4 3.9
2017-Jan-13 16:33N 51°34' E 002°00'4 3.9
2017-Jan-13 15:33N 51°31' E 001°58'3 3.1
2017-Jan-13 14:34N 51°33' E 002°02'3 3.3
2017-Jan-13 13:33N 51°34' E 002°07'3 3.4
2017-Jan-13 12:33N 51°36' E 002°11'4 3.5
2017-Jan-13 11:33N 51°39' E 002°15'241 6.5
2017-Jan-11 22:18N 53°59' E 007°41'3 3.8
2017-Jan-11 21:32N 53°56' E 007°43'4 3.9
2017-Jan-11 20:33N 53°53' E 007°45'5 4.7
2017-Jan-11 19:33N 53°50' E 007°52'9 9.5
2017-Jan-11 18:33N 53°44' E 008°04'9 9.1
2017-Jan-11 17:33N 53°35' E 008°09'0 0.0
2017-Jan-11 16:32N 53°35' E 008°09'0 0.0
2017-Jan-11 15:32N 53°35' E 008°09'0 0.0
2017-Jan-11 14:32N 53°35' E 008°09'0 0.0
2017-Jan-11 13:29N 53°35' E 008°09'0 0.0
2017-Jan-11 12:31N 53°35' E 008°09'0 0.0
2017-Jan-11 11:28N 53°35' E 008°09'2 2.5
2017-Jan-11 10:33N 53°37' E 008°09'1313.5
2017-Jan-11 09:34N 53°49' E 007°57'5112.9
2017-Jan-11 05:33N 54°38' E 007°29'1312.5
2017-Jan-11 04:33N 54°50' E 007°28'1312.8
2017-Jan-11 03:33N 55°03' E 007°26'1312.9
2017-Jan-11 02:33N 55°16' E 007°25'1212.6
2017-Jan-11 01:33N 55°28' E 007°23'1212.4
2017-Jan-11 00:33N 55°41' E 007°20'1313.0
2017-Jan-10 23:33N 55°53' E 007°26'14914.5
2017-Jan-10 13:16N 57°49' E 010°17'1419.3
2017-Jan-10 12:33N 57°49' E 010°43'1817.7
2017-Jan-10 11:34N 57°42' E 011°13'1515.4
2017-Jan-10 10:33N 57°38' E 011°41'6 6.1
2017-Jan-10 09:33N 57°41' E 011°51'0 0.0
2017-Jan-10 08:32N 57°41' E 011°51'0 0.0
2017-Jan-10 07:32N 57°41' E 011°51'0 0.0
2017-Jan-10 06:31N 57°41' E 011°51'0 0.0
2017-Jan-10 05:31N 57°41' E 011°51'0 0.0
2017-Jan-10 04:33N 57°41' E 011°51'0 0.0
2017-Jan-10 03:33N 57°41' E 011°51'0 0.0
2017-Jan-10 02:33N 57°41' E 011°51'0 0.0
2017-Jan-10 01:32N 57°41' E 011°51'0 0.0
2017-Jan-10 00:32N 57°41' E 011°51'0 0.0
2017-Jan-09 23:31N 57°41' E 011°51'0 0.0
2017-Jan-09 22:31N 57°41' E 011°51'0 0.0
2017-Jan-09 21:33N 57°41' E 011°51'0 0.0
2017-Jan-09 20:33N 57°41' E 011°51'0 0.0
2017-Jan-09 19:33N 57°41' E 011°51'0 0.0
2017-Jan-09 18:32N 57°41' E 011°51'0 0.0
2017-Jan-09 17:32N 57°41' E 011°51'0 0.0
2017-Jan-09 16:31N 57°41' E 011°51'0 0.0
2017-Jan-09 15:31N 57°41' E 011°51'0 0.0
2017-Jan-09 14:33N 57°41' E 011°51'0 0.0
2017-Jan-09 13:33N 57°41' E 011°51'0 0.0
2017-Jan-09 12:33N 57°41' E 011°51'0 0.0
2017-Jan-09 11:32N 57°41' E 011°51'0 0.0
2017-Jan-09 10:32N 57°41' E 011°51'0 0.0
2017-Jan-09 09:31N 57°41' E 011°51'0 0.0
2017-Jan-09 08:31N 57°41' E 011°51'0 0.0
2017-Jan-09 07:33N 57°41' E 011°51'0 0.0
2017-Jan-09 06:33N 57°41' E 011°51'0 0.0
2017-Jan-09 05:33N 57°41' E 011°51'2 2.3
2017-Jan-09 04:33N 57°40' E 011°47'10 9.5
2017-Jan-09 03:33N 57°33' E 011°37'1110.7
2017-Jan-09 02:33N 57°22' E 011°36'1010.5
2017-Jan-09 01:33N 57°11' E 011°38'1111.0
2017-Jan-09 00:32N 57°01' E 011°44'64 9.1
2017-Jan-08 17:32N 56°03' E 010°53'1010.8
2017-Jan-08 16:34N 56°04' E 010°34'1111.1
2017-Jan-08 15:33N 56°09' E 010°16'1 1.1
2017-Jan-08 14:34N 56°09' E 010°14'0 0.0
2017-Jan-08 13:33N 56°09' E 010°14'0 0.0
2017-Jan-08 12:33N 56°09' E 010°14'0 0.0
2017-Jan-08 11:32N 56°09' E 010°14'0 0.0
2017-Jan-08 10:32N 56°09' E 010°14'0 0.0
2017-Jan-08 09:31N 56°09' E 010°14'0 0.0
2017-Jan-08 08:31N 56°09' E 010°14'0 0.0
2017-Jan-08 07:33N 56°09' E 010°14'0 0.0
2017-Jan-08 06:33N 56°09' E 010°14'0 0.0
2017-Jan-08 05:33N 56°09' E 010°14'0 0.0
2017-Jan-08 04:33N 56°09' E 010°14'6 6.4
2017-Jan-08 03:33N 56°07' E 010°25'1313.1
2017-Jan-08 02:33N 56°03' E 010°47'6311.8
2017-Jan-07 21:10N 56°59' E 011°42'813.6
2017-Jan-07 20:33N 57°07' E 011°37'1413.7
2017-Jan-07 19:33N 57°20' E 011°29'1313.3
2017-Jan-07 18:34N 57°31' E 011°17'1413.8
2017-Jan-07 17:33N 57°41' E 010°58'1413.7
2017-Jan-07 16:33N 57°48' E 010°37'2014.0
2017-Jan-07 15:10N 57°44' E 010°01'1214.2
2017-Jan-07 14:17N 57°37' E 009°42'  

Dump ship's entire track history